createdAt,value
2017-11-09T00:01:33.227Z,7.60
2017-11-09T00:04:06.295Z,6.93
2017-11-09T00:06:33.822Z,6.50
2017-11-09T00:09:06.358Z,6.70
2017-11-09T00:11:33.882Z,7.83
2017-11-09T00:14:01.492Z,7.57
2017-11-09T00:16:28.988Z,7.60
2017-11-09T00:18:56.495Z,7.57
2017-11-09T00:21:23.998Z,6.13
2017-11-09T00:23:51.508Z,6.97
2017-11-09T00:26:19.016Z,7.70
2017-11-09T00:28:46.528Z,8.17
2017-11-09T00:31:14.050Z,7.97
2017-11-09T00:33:41.543Z,7.07
2017-11-09T00:36:09.042Z,6.13
2017-11-09T00:38:36.551Z,7.77
2017-11-09T00:41:04.067Z,7.43
2017-11-09T00:43:31.572Z,8.10
2017-11-09T00:45:59.070Z,7.20
2017-11-09T00:48:26.566Z,8.80
2017-11-09T00:50:54.080Z,9.70
2017-11-09T00:53:21.582Z,9.53
2017-11-09T00:55:49.081Z,8.37
2017-11-09T00:58:16.597Z,8.10
2017-11-09T01:00:44.102Z,9.00
2017-11-09T01:03:11.601Z,9.70
2017-11-09T01:05:39.092Z,8.30
2017-11-09T01:08:06.580Z,8.77
2017-11-09T01:10:34.494Z,8.20
2017-11-09T01:13:01.974Z,8.90
2017-11-09T01:15:29.482Z,7.97
2017-11-09T01:17:56.966Z,8.10
2017-11-09T01:20:24.446Z,8.57
2017-11-09T01:22:51.942Z,9.50
2017-11-09T01:25:19.421Z,9.17
2017-11-09T01:27:46.924Z,10.53
2017-11-09T01:30:14.432Z,10.43
2017-11-09T01:32:41.923Z,11.10
2017-11-09T01:35:09.436Z,10.60
2017-11-09T01:37:36.943Z,11.40
2017-11-09T01:40:04.448Z,13.80
2017-11-09T01:42:31.938Z,16.47
2017-11-09T01:44:59.447Z,14.17
2017-11-09T01:47:26.942Z,13.53
2017-11-09T01:49:54.451Z,12.50
2017-11-09T01:52:21.956Z,14.00
2017-11-09T01:54:49.467Z,13.57
2017-11-09T01:57:16.971Z,13.37
2017-11-09T01:59:44.487Z,13.27
2017-11-09T02:02:11.991Z,13.80
2017-11-09T02:04:39.528Z,13.83
2017-11-09T02:07:07.044Z,16.30
2017-11-09T02:09:34.574Z,14.20
2017-11-09T02:12:02.089Z,16.00
2017-11-09T02:14:29.604Z,14.87
2017-11-09T02:16:57.120Z,14.03
2017-11-09T02:19:24.619Z,12.70
2017-11-09T02:21:52.133Z,12.13
2017-11-09T02:24:19.636Z,12.00
2017-11-09T02:26:47.141Z,10.50
2017-11-09T02:29:14.660Z,12.70
2017-11-09T02:31:42.159Z,10.27
2017-11-09T02:34:09.671Z,11.10
2017-11-09T02:36:37.195Z,11.43
2017-11-09T02:39:04.703Z,10.00
2017-11-09T02:41:32.234Z,9.77
2017-11-09T02:43:59.754Z,11.93
2017-11-09T02:46:27.276Z,12.60
2017-11-09T02:48:54.779Z,11.70
2017-11-09T02:51:22.297Z,11.83
2017-11-09T02:53:49.814Z,11.53
2017-11-09T02:56:17.334Z,10.70
2017-11-09T02:58:44.854Z,9.80
2017-11-09T03:01:12.396Z,10.53
2017-11-09T03:03:39.914Z,9.77
2017-11-09T03:06:08.268Z,9.60
2017-11-09T03:08:35.808Z,12.03
2017-11-09T03:11:03.342Z,12.10
2017-11-09T03:13:30.856Z,12.37
2017-11-09T03:15:58.366Z,12.13
2017-11-09T03:18:25.875Z,12.30
2017-11-09T03:20:53.378Z,13.70
2017-11-09T03:23:20.867Z,13.13
2017-11-09T03:25:48.368Z,11.17
2017-11-09T03:28:15.896Z,10.17
2017-11-09T03:30:43.391Z,9.97
2017-11-09T03:33:10.908Z,9.90
2017-11-09T03:35:38.412Z,9.67
2017-11-09T03:38:05.926Z,9.43
2017-11-09T03:40:33.440Z,11.10
2017-11-09T03:43:00.963Z,11.27
2017-11-09T03:45:28.475Z,11.53
2017-11-09T03:47:56.002Z,11.93
2017-11-09T03:50:23.523Z,11.60
2017-11-09T03:52:51.041Z,10.10
2017-11-09T03:55:18.546Z,9.33
2017-11-09T03:57:46.089Z,10.20
2017-11-09T04:00:13.598Z,11.73
2017-11-09T04:02:41.122Z,10.57
2017-11-09T04:05:08.649Z,10.00
2017-11-09T04:07:36.164Z,10.17
2017-11-09T04:10:04.043Z,9.70
2017-11-09T04:12:31.559Z,8.60
2017-11-09T04:14:59.055Z,8.50
2017-11-09T04:17:26.582Z,8.97
2017-11-09T04:19:54.085Z,8.40
2017-11-09T04:22:21.592Z,9.53
2017-11-09T04:24:49.081Z,9.23
2017-11-09T04:27:16.611Z,9.30
2017-11-09T04:29:44.110Z,9.80
2017-11-09T04:32:11.620Z,9.77
2017-11-09T04:34:39.118Z,9.77
2017-11-09T04:37:06.615Z,10.30
2017-11-09T04:39:34.121Z,12.10
2017-11-09T04:42:01.624Z,10.40
2017-11-09T04:44:29.127Z,11.67
2017-11-09T04:46:56.659Z,10.50
2017-11-09T04:49:24.166Z,9.27
2017-11-09T04:51:51.693Z,10.73
2017-11-09T04:54:19.204Z,8.30
2017-11-09T04:56:46.703Z,8.80
2017-11-09T04:59:14.203Z,9.00
2017-11-09T05:01:41.704Z,9.53
2017-11-09T05:04:09.235Z,9.57
2017-11-09T05:06:36.736Z,8.60
2017-11-09T05:09:04.249Z,10.00
2017-11-09T05:11:31.804Z,8.40
2017-11-09T05:13:59.306Z,9.07
2017-11-09T05:16:26.795Z,10.33
2017-11-09T05:18:54.320Z,9.90
2017-11-09T05:21:21.832Z,9.00
2017-11-09T05:23:49.335Z,8.17
2017-11-09T05:26:16.850Z,8.70
2017-11-09T05:28:44.347Z,8.50
2017-11-09T05:31:11.839Z,8.60
2017-11-09T05:33:39.346Z,8.70
2017-11-09T05:36:06.845Z,8.90
2017-11-09T05:38:34.373Z,9.43
2017-11-09T05:41:01.866Z,9.47
2017-11-09T05:43:29.405Z,9.70
2017-11-09T05:45:57.015Z,8.80
2017-11-09T05:48:24.512Z,9.60
2017-11-09T05:50:52.021Z,10.10
2017-11-09T05:53:19.588Z,11.30
2017-11-09T05:55:47.193Z,10.73
2017-11-09T05:58:14.718Z,8.63
2017-11-09T06:00:42.261Z,8.70
2017-11-09T06:03:09.760Z,9.70
2017-11-09T06:05:37.266Z,10.00
2017-11-09T06:08:04.768Z,9.60
2017-11-09T06:10:32.267Z,10.60
2017-11-09T06:12:59.773Z,10.73
2017-11-09T06:15:27.305Z,10.23
2017-11-09T06:17:54.820Z,9.00
2017-11-09T06:20:22.319Z,9.80
2017-11-09T06:22:49.843Z,10.97
2017-11-09T06:25:17.505Z,9.50
2017-11-09T06:27:45.008Z,13.57
2017-11-09T06:30:12.522Z,9.27
2017-11-09T06:32:40.015Z,8.00
2017-11-09T06:35:07.547Z,8.07
2017-11-09T06:37:35.066Z,8.40
2017-11-09T06:40:02.578Z,10.57
2017-11-09T06:42:30.083Z,10.80
2017-11-09T06:44:57.593Z,10.90
2017-11-09T06:47:25.108Z,12.17
2017-11-09T06:49:52.633Z,10.70
2017-11-09T06:52:20.143Z,12.60
2017-11-09T06:54:47.640Z,10.50
2017-11-09T06:57:15.181Z,11.93
2017-11-09T06:59:42.692Z,10.67
2017-11-09T07:02:10.203Z,10.40
2017-11-09T07:04:37.711Z,10.13
2017-11-09T07:07:05.228Z,10.20
2017-11-09T07:09:32.727Z,9.60
2017-11-09T07:12:00.224Z,10.40
2017-11-09T07:14:27.722Z,8.83
2017-11-09T07:16:55.260Z,10.27
2017-11-09T07:19:22.780Z,11.10
2017-11-09T07:21:50.287Z,10.10
2017-11-09T07:24:17.791Z,9.87
2017-11-09T07:26:45.301Z,12.00
2017-11-09T07:29:12.798Z,11.00
2017-11-09T07:31:40.335Z,12.23
2017-11-09T07:34:07.837Z,13.13
2017-11-09T07:36:35.354Z,11.90
2017-11-09T07:39:02.987Z,12.97
2017-11-09T07:41:30.498Z,10.93
2017-11-09T07:43:57.999Z,11.23
2017-11-09T07:46:25.529Z,11.17
2017-11-09T07:48:53.055Z,11.87
2017-11-09T07:51:20.558Z,11.70
2017-11-09T07:53:48.052Z,12.17
2017-11-09T07:56:15.584Z,12.80
2017-11-09T07:58:43.081Z,12.50
2017-11-09T08:01:10.669Z,12.73
2017-11-09T08:03:38.189Z,13.60
2017-11-09T08:06:05.806Z,14.70
2017-11-09T08:08:33.372Z,14.20
2017-11-09T08:11:00.914Z,14.80
2017-11-09T08:13:28.431Z,17.70
2017-11-09T08:15:55.934Z,15.97
2017-11-09T08:18:23.448Z,14.97
2017-11-09T08:20:50.963Z,14.43
2017-11-09T08:23:18.488Z,13.60
2017-11-09T08:25:48.909Z,13.80
2017-11-09T08:28:18.734Z,15.57
2017-11-09T08:30:50.957Z,17.00
2017-11-09T08:33:20.118Z,17.03
2017-11-09T08:35:47.628Z,17.10
2017-11-09T08:38:15.122Z,15.90
2017-11-09T08:40:42.631Z,15.60
2017-11-09T08:43:10.138Z,16.30
2017-11-09T08:45:37.668Z,16.23
2017-11-09T08:48:05.197Z,14.63
2017-11-09T08:50:32.776Z,15.27
2017-11-09T08:53:00.315Z,15.53
2017-11-09T08:55:27.832Z,17.17
2017-11-09T08:57:55.356Z,14.20
2017-11-09T09:00:22.880Z,14.53
2017-11-09T09:02:50.415Z,13.60
2017-11-09T09:05:17.936Z,13.17
2017-11-09T09:07:45.443Z,13.77
2017-11-09T09:10:12.988Z,13.10
2017-11-09T09:12:40.507Z,13.23
2017-11-09T09:15:08.036Z,13.90
2017-11-09T09:17:35.558Z,13.93
2017-11-09T09:20:03.072Z,14.43
2017-11-09T09:22:50.464Z,13.50
2017-11-09T09:25:23.555Z,13.23
2017-11-09T09:30:56.116Z,11.93
2017-11-09T09:33:28.404Z,12.43
2017-11-09T09:36:00.029Z,13.80
2017-11-09T09:38:36.054Z,11.77
2017-11-09T09:41:03.555Z,12.80
2017-11-09T09:43:31.064Z,14.10
2017-11-09T09:45:58.578Z,14.80
2017-11-09T09:48:26.100Z,12.40
2017-11-09T09:50:53.644Z,12.10
2017-11-09T09:53:21.162Z,12.13
2017-11-09T09:55:48.677Z,11.30
2017-11-09T09:58:16.193Z,10.73
2017-11-09T10:00:43.714Z,11.00
2017-11-09T10:03:11.220Z,9.50
2017-11-09T10:05:38.717Z,10.60
2017-11-09T10:08:06.247Z,9.73
2017-11-09T10:10:33.739Z,9.63
2017-11-09T10:13:01.249Z,13.77
2017-11-09T10:15:28.756Z,10.10
2017-11-09T10:17:56.272Z,8.00
2017-11-09T10:20:23.768Z,8.60
2017-11-09T10:22:51.263Z,8.27
2017-11-09T10:25:18.748Z,8.57
2017-11-09T10:27:46.255Z,8.47
2017-11-09T10:30:13.831Z,9.57
2017-11-09T10:32:41.337Z,10.00
2017-11-09T10:35:08.848Z,8.90
2017-11-09T10:37:36.355Z,9.80
2017-11-09T10:40:03.879Z,10.30
2017-11-09T10:42:31.384Z,9.57
2017-11-09T10:44:58.875Z,9.63
2017-11-09T10:47:26.395Z,9.00
2017-11-09T10:49:53.894Z,9.40
2017-11-09T10:52:21.391Z,9.07
2017-11-09T10:54:48.899Z,10.37
2017-11-09T10:57:16.409Z,10.17
2017-11-09T10:59:43.935Z,11.07
2017-11-09T11:02:11.453Z,12.83
2017-11-09T11:04:38.965Z,11.90
2017-11-09T11:07:06.476Z,13.13
2017-11-09T11:09:33.971Z,11.37
2017-11-09T11:12:01.489Z,12.40
2017-11-09T11:14:29.004Z,19.40
2017-11-09T11:16:56.531Z,15.27
2017-11-09T11:19:24.050Z,13.83
2017-11-09T11:21:51.569Z,11.80
2017-11-09T11:24:19.062Z,9.10
2017-11-09T11:26:46.560Z,8.60
2017-11-09T11:29:14.059Z,7.47
2017-11-09T11:31:41.567Z,7.40
2017-11-09T11:34:09.103Z,7.20
2017-11-09T11:36:36.608Z,7.87
2017-11-09T11:39:04.168Z,8.23
2017-11-09T11:41:31.661Z,8.37
2017-11-09T11:43:59.188Z,7.53
2017-11-09T11:46:26.694Z,7.57
2017-11-09T11:48:54.195Z,8.20
2017-11-09T11:51:21.706Z,7.30
2017-11-09T11:53:49.234Z,7.60
2017-11-09T11:56:16.763Z,7.33
2017-11-09T11:58:44.267Z,7.60
2017-11-09T12:01:11.766Z,8.70
2017-11-09T12:03:39.296Z,7.33
2017-11-09T12:06:06.830Z,7.77
2017-11-09T12:08:34.338Z,5.60
2017-11-09T12:11:01.849Z,6.93
2017-11-09T12:13:29.365Z,6.73
2017-11-09T12:15:56.881Z,5.50
2017-11-09T12:18:24.373Z,5.43
2017-11-09T12:20:51.930Z,5.60
2017-11-09T12:23:19.445Z,5.67
2017-11-09T12:25:46.955Z,4.27
2017-11-09T12:28:14.457Z,4.40
2017-11-09T12:30:41.990Z,4.10
2017-11-09T12:33:09.515Z,6.10
2017-11-09T12:35:37.175Z,5.93
2017-11-09T12:38:04.717Z,4.70
2017-11-09T12:40:32.218Z,4.53
2017-11-09T12:42:59.752Z,4.63
2017-11-09T12:45:27.261Z,4.20
2017-11-09T12:47:54.762Z,4.10
2017-11-09T12:50:22.246Z,5.27
2017-11-09T12:52:49.763Z,4.40
2017-11-09T12:55:17.243Z,4.87
2017-11-09T12:57:44.739Z,5.90
2017-11-09T13:00:12.258Z,6.13
2017-11-09T13:02:39.779Z,6.63
2017-11-09T13:05:07.286Z,12.97
2017-11-09T13:07:34.794Z,9.53
2017-11-09T13:10:02.297Z,17.30
2017-11-09T13:12:29.827Z,15.40
2017-11-09T13:14:57.334Z,8.37
2017-11-09T13:17:24.854Z,6.80
2017-11-09T13:19:52.396Z,6.80
2017-11-09T13:22:19.910Z,5.93
2017-11-09T13:24:47.439Z,8.77
2017-11-09T13:27:14.960Z,10.20
2017-11-09T13:29:42.457Z,6.30
2017-11-09T13:32:09.957Z,5.77
2017-11-09T13:34:38.281Z,5.43
2017-11-09T13:37:05.798Z,5.50
2017-11-09T13:39:33.321Z,6.33
2017-11-09T13:42:00.853Z,13.07
2017-11-09T13:44:28.416Z,6.13
2017-11-09T13:46:55.906Z,5.80
2017-11-09T13:49:23.402Z,6.43
2017-11-09T13:51:50.916Z,6.60
2017-11-09T13:54:18.426Z,7.17
2017-11-09T13:56:45.960Z,6.03
2017-11-09T13:59:13.457Z,5.33
2017-11-09T14:01:40.973Z,6.90
2017-11-09T14:04:08.473Z,6.93
2017-11-09T14:06:35.970Z,6.00
2017-11-09T14:09:03.461Z,5.90
2017-11-09T14:11:30.993Z,6.10
2017-11-09T14:13:58.508Z,6.77
2017-11-09T14:16:26.013Z,6.13
2017-11-09T14:18:53.540Z,7.10
2017-11-09T14:21:21.056Z,6.27
2017-11-09T14:23:48.559Z,6.00
2017-11-09T14:26:16.080Z,5.30
2017-11-09T14:28:43.581Z,6.80
2017-11-09T14:31:11.072Z,6.90
2017-11-09T14:33:38.564Z,7.37
2017-11-09T14:36:06.090Z,12.87
2017-11-09T14:38:37.594Z,16.50
2017-11-09T14:41:05.133Z,9.07
2017-11-09T14:43:32.656Z,7.93
2017-11-09T14:46:00.207Z,7.37
2017-11-09T14:48:27.724Z,6.43
2017-11-09T14:50:55.238Z,7.47
2017-11-09T14:53:22.747Z,7.70
2017-11-09T14:55:50.281Z,7.40
2017-11-09T14:58:17.800Z,7.30
2017-11-09T15:00:45.331Z,8.00
2017-11-09T15:03:12.863Z,23.37
2017-11-09T15:05:40.414Z,23.23
2017-11-09T15:08:07.961Z,15.10
2017-11-09T15:10:35.483Z,11.07
2017-11-09T15:13:03.004Z,10.53
2017-11-09T15:15:30.531Z,8.67
2017-11-09T15:17:58.064Z,8.30
2017-11-09T15:20:25.564Z,8.17
2017-11-09T15:22:53.093Z,8.80
2017-11-09T15:25:20.603Z,9.40
2017-11-09T15:27:48.119Z,9.93
2017-11-09T15:30:15.650Z,10.40
2017-11-09T15:32:43.175Z,10.20
2017-11-09T15:35:10.731Z,10.47
2017-11-09T15:37:38.236Z,9.93
2017-11-09T15:40:05.802Z,10.73
2017-11-09T15:42:33.319Z,14.20
2017-11-09T15:45:00.841Z,16.47
2017-11-09T15:47:28.327Z,12.53
2017-11-09T15:49:55.856Z,11.30
2017-11-09T15:52:23.381Z,13.40
2017-11-09T15:54:50.909Z,18.40
2017-11-09T15:57:18.441Z,16.57
2017-11-09T15:59:45.963Z,12.47
2017-11-09T16:02:13.529Z,10.47
2017-11-09T16:04:41.040Z,10.23
2017-11-09T16:07:14.070Z,11.20
2017-11-09T16:09:41.574Z,10.80
2017-11-09T16:12:09.105Z,10.40
2017-11-09T16:14:36.668Z,9.40
2017-11-09T16:17:04.197Z,10.07
2017-11-09T16:19:31.714Z,10.53
2017-11-09T16:21:59.273Z,9.87
2017-11-09T16:24:26.808Z,10.93
2017-11-09T16:26:57.192Z,10.73
2017-11-09T16:29:24.734Z,11.50
2017-11-09T16:31:52.243Z,11.83
2017-11-09T16:34:19.764Z,11.53
2017-11-09T16:36:47.269Z,9.63
2017-11-09T16:39:14.767Z,10.73
2017-11-09T16:41:42.289Z,10.20
2017-11-09T16:44:09.803Z,10.60
2017-11-09T16:46:37.434Z,11.10
2017-11-09T16:49:04.969Z,10.20
2017-11-09T16:51:32.488Z,11.10
2017-11-09T16:54:00.798Z,10.10
2017-11-09T16:56:28.322Z,10.93
2017-11-09T16:58:55.823Z,10.47
2017-11-09T17:01:23.347Z,10.63
2017-11-09T17:03:50.871Z,9.50
2017-11-09T17:06:18.411Z,10.60
2017-11-09T17:08:45.921Z,11.07
2017-11-09T17:11:13.429Z,11.90
2017-11-09T17:13:40.946Z,10.87
2017-11-09T17:16:08.476Z,13.10
2017-11-09T17:18:35.976Z,12.83
2017-11-09T17:21:03.499Z,12.10
2017-11-09T17:23:31.042Z,14.37
2017-11-09T17:25:58.613Z,16.33
2017-11-09T17:28:26.131Z,16.90
2017-11-09T17:30:53.675Z,16.00
2017-11-09T17:33:21.197Z,14.20
2017-11-09T17:35:48.732Z,14.40
2017-11-09T17:38:16.263Z,28.23
2017-11-09T17:40:43.775Z,38.90
2017-11-09T17:43:11.473Z,35.47
2017-11-09T17:45:38.985Z,16.00
2017-11-09T17:48:06.677Z,14.13
2017-11-09T17:50:34.188Z,13.70
2017-11-09T17:53:01.920Z,12.77
2017-11-09T17:55:29.905Z,14.23
2017-11-09T17:57:57.638Z,13.57
2017-11-09T18:00:25.230Z,12.53
2017-11-09T18:02:52.744Z,13.20
2017-11-09T18:05:20.264Z,12.77
2017-11-09T18:07:48.279Z,14.63
2017-11-09T18:10:15.838Z,13.10
2017-11-09T18:12:43.690Z,13.77
2017-11-09T18:15:11.648Z,14.77
2017-11-09T18:17:39.180Z,15.30
2017-11-09T18:20:06.853Z,16.00
2017-11-09T18:22:37.312Z,17.23
2017-11-09T18:25:05.177Z,16.27
2017-11-09T18:27:32.940Z,17.47
2017-11-09T18:30:00.678Z,32.90
2017-11-09T18:32:28.233Z,18.23
2017-11-09T18:34:55.760Z,14.10
2017-11-09T18:37:23.559Z,14.80
2017-11-09T18:39:51.331Z,15.53
2017-11-09T18:42:19.200Z,14.53
2017-11-09T18:44:47.240Z,16.70
2017-11-09T18:47:14.895Z,15.90
2017-11-09T18:49:42.447Z,21.10
2017-11-09T18:52:10.003Z,29.20
2017-11-09T18:54:37.538Z,29.73
2017-11-09T18:57:05.291Z,26.03
2017-11-09T18:59:32.800Z,16.90
2017-11-09T19:02:00.319Z,15.57
2017-11-09T19:04:28.138Z,14.90
2017-11-09T19:06:55.818Z,15.37
2017-11-09T19:09:30.222Z,22.30
2017-11-09T19:11:57.779Z,20.93
2017-11-09T19:14:25.557Z,17.70
2017-11-09T19:16:53.130Z,16.97
2017-11-09T19:19:20.657Z,15.77
2017-11-09T19:21:48.472Z,19.43
2017-11-09T19:24:15.990Z,18.73
2017-11-09T19:26:43.492Z,19.20
2017-11-09T19:29:11.327Z,19.77
2017-11-09T19:31:39.296Z,21.27
2017-11-09T19:34:06.822Z,18.63
2017-11-09T19:36:34.823Z,16.60
2017-11-09T19:39:02.335Z,14.33
2017-11-09T19:41:29.853Z,13.67
2017-11-09T19:43:57.368Z,15.63
2017-11-09T19:46:24.881Z,21.40
2017-11-09T19:48:52.795Z,20.87
2017-11-09T19:51:20.700Z,32.20
2017-11-09T19:53:48.227Z,25.97
2017-11-09T19:56:16.224Z,18.90
2017-11-09T19:58:45.081Z,25.67
2017-11-09T20:01:13.690Z,25.67
2017-11-09T20:03:41.267Z,26.40
2017-11-09T20:06:09.651Z,23.30
2017-11-09T20:08:37.591Z,24.90
2017-11-09T20:11:05.338Z,22.23
2017-11-09T20:13:32.940Z,22.17
2017-11-09T20:16:00.921Z,21.23
2017-11-09T20:18:29.664Z,21.47
2017-11-09T20:20:57.468Z,19.93
2017-11-09T20:23:26.609Z,18.93
2017-11-09T20:25:54.506Z,17.20
2017-11-09T20:28:23.398Z,18.10
2017-11-09T20:30:51.749Z,18.27
2017-11-09T20:33:19.270Z,18.57
2017-11-09T20:35:47.818Z,16.27
2017-11-09T20:38:17.916Z,19.10
2017-11-09T20:40:45.496Z,18.13
2017-11-09T20:43:15.613Z,15.93
2017-11-09T20:45:43.677Z,14.40
2017-11-09T20:48:11.216Z,16.00
2017-11-09T20:50:38.759Z,15.60
2017-11-09T20:53:06.283Z,16.30
2017-11-09T20:55:34.232Z,18.10
2017-11-09T20:58:01.758Z,21.40
2017-11-09T21:00:29.957Z,20.07
2017-11-09T21:02:57.502Z,20.13
2017-11-09T21:05:26.222Z,16.47
2017-11-09T21:07:53.849Z,14.40
2017-11-09T21:10:21.510Z,14.57
2017-11-09T21:12:49.471Z,15.57
2017-11-09T21:15:16.992Z,15.40
2017-11-09T21:17:44.529Z,20.90
2017-11-09T21:20:12.348Z,22.90
2017-11-09T21:22:40.221Z,18.80
2017-11-09T21:25:07.746Z,17.93
2017-11-09T21:27:35.596Z,18.60
2017-11-09T21:30:03.147Z,16.10
2017-11-09T21:32:31.015Z,15.23
2017-11-09T21:34:58.853Z,13.03
2017-11-09T21:37:26.384Z,14.60
2017-11-09T21:39:53.955Z,12.07
2017-11-09T21:42:21.700Z,13.30
2017-11-09T21:44:49.213Z,12.80
2017-11-09T21:47:16.755Z,13.60
2017-11-09T21:49:44.289Z,12.93
2017-11-09T21:52:12.030Z,12.07
2017-11-09T21:54:39.535Z,11.40
2017-11-09T21:57:07.179Z,12.03
2017-11-09T21:59:34.699Z,14.73
2017-11-09T22:02:02.251Z,12.13
2017-11-09T22:04:29.811Z,13.13
2017-11-09T22:06:57.734Z,8.20
2017-11-09T22:09:25.518Z,9.20
2017-11-09T22:11:53.062Z,9.70
2017-11-09T22:14:20.563Z,8.93
2017-11-09T22:16:48.071Z,9.03
2017-11-09T22:19:15.567Z,8.43
2017-11-09T22:21:43.075Z,10.97
2017-11-09T22:24:10.584Z,10.33
2017-11-09T22:26:38.130Z,11.80
2017-11-09T22:29:05.698Z,10.17
2017-11-09T22:31:33.219Z,10.10
2017-11-09T22:34:00.730Z,8.03
2017-11-09T22:36:28.275Z,10.73
2017-11-09T22:38:55.886Z,8.50
2017-11-09T22:41:23.398Z,8.87
2017-11-09T22:43:50.979Z,10.00
2017-11-09T22:46:18.520Z,8.60
2017-11-09T22:48:46.034Z,7.93
2017-11-09T22:51:13.544Z,7.60
2017-11-09T22:53:41.060Z,8.73
2017-11-09T22:56:08.592Z,8.30
2017-11-09T22:58:36.090Z,7.77
2017-11-09T23:01:03.650Z,11.10
2017-11-09T23:03:31.160Z,11.00
2017-11-09T23:05:58.723Z,22.67
2017-11-09T23:08:26.239Z,9.47
2017-11-09T23:10:53.747Z,13.50
2017-11-09T23:13:21.623Z,11.30
2017-11-09T23:15:49.141Z,12.10
2017-11-09T23:18:16.690Z,11.50
2017-11-09T23:20:44.205Z,10.77
2017-11-09T23:23:11.710Z,10.90
2017-11-09T23:25:39.240Z,10.47
2017-11-09T23:28:06.750Z,9.53
2017-11-09T23:30:34.255Z,9.07
2017-11-09T23:33:01.770Z,8.37
2017-11-09T23:35:29.295Z,8.40
2017-11-09T23:37:56.828Z,29.87
2017-11-09T23:40:24.336Z,26.53
2017-11-09T23:42:51.848Z,11.10
2017-11-09T23:45:19.370Z,10.07
2017-11-09T23:47:46.916Z,11.20
2017-11-09T23:50:14.447Z,8.60
2017-11-09T23:52:41.955Z,9.83
2017-11-09T23:55:09.492Z,9.63
2017-11-09T23:57:37.013Z,10.97
